Time;durP1;ratioP1;P1;durP2;ratioP2;P2;SDS_P1;SDS_P2;PMS_P1;PMS_P2;Temp;Humidity;BMP_temperature;BMP_pressure;BME280_temperature;BME280_humidity;BME280_pressure;Samples;Min_cycle;Max_cycle;Signal;HPM_P1;HPM_P2
2023/03/16 00:01:21;;;;;;;7.95;3.22;;;2.60;99.90;;;-144.05;53.15;57029.38;5055615;28;20041;-78
2023/03/16 00:03:47;;;;;;;10.88;4.00;;;2.50;99.90;;;-144.05;53.26;57025.13;5053289;28;20384;-79
2023/03/16 00:06:12;;;;;;;7.80;3.40;;;2.50;99.90;;;-144.05;53.32;57029.38;5054071;28;20029;-79
2023/03/16 00:08:38;;;;;;;10.95;4.97;;;2.60;99.90;;;-144.05;53.41;57042.13;5053221;28;20056;-78
2023/03/16 00:11:04;;;;;;;10.80;3.58;;;2.60;99.90;;;-144.05;53.33;57003.88;5053645;28;20025;-79
2023/03/16 00:13:31;;;;;;;15.73;5.25;;;2.60;99.90;;;-144.05;53.54;57031.50;5056226;28;20380;-80
2023/03/16 00:16:03;;;;;;;12.43;3.67;;;2.60;99.90;;;-144.05;53.06;56989.00;5056835;28;20021;-79
2023/03/16 00:18:37;;;;;;;8.35;3.17;;;2.60;99.90;;;-144.05;52.73;57027.25;5055811;28;20021;-78
2023/03/16 00:21:05;;;;;;;7.50;3.53;;;2.70;99.90;;;-144.05;52.80;57012.38;5055084;28;20029;-79
2023/03/16 00:23:34;;;;;;;6.65;3.38;;;2.70;99.90;;;-144.05;52.75;57003.88;5057400;28;20036;-80
2023/03/16 00:26:06;;;;;;;9.90;3.60;;;2.60;99.90;;;-144.05;53.06;57023.00;5054683;28;20024;-79
2023/03/16 00:28:34;;;;;;;5.85;3.15;;;2.70;99.90;;;-144.05;52.96;57029.38;5055942;28;20412;-78
2023/03/16 00:31:07;;;;;;;8.93;3.53;;;2.70;99.90;;;-144.05;53.05;57031.50;5057632;28;20033;-80
2023/03/16 00:33:33;;;;;;;6.35;3.05;;;2.70;99.90;;;-144.05;53.04;57012.38;5062541;28;20033;-80
2023/03/16 00:36:04;;;;;;;6.80;3.13;;;2.70;99.90;;;-144.05;52.62;57014.50;5059473;28;20520;-79
2023/03/16 00:38:35;;;;;;;12.75;3.03;;;2.70;99.90;;;-144.05;52.62;57001.75;5054412;28;20029;-80
2023/03/16 00:41:04;;;;;;;6.68;3.10;;;2.70;99.90;;;-144.05;52.84;57031.50;5056348;28;20450;-78
2023/03/16 00:43:43;;;;;;;5.80;2.78;;;2.80;99.90;;;-144.05;52.62;57029.38;5055382;28;20048;-78
2023/03/16 00:46:16;;;;;;;7.80;4.07;;;2.80;99.90;;;-144.05;52.39;57042.13;5056739;28;20116;-80
2023/03/16 00:48:46;;;;;;;5.72;2.92;;;2.80;99.90;;;-144.05;52.29;57025.13;5057107;28;20029;-80
2023/03/16 00:51:18;;;;;;;7.35;3.47;;;2.90;99.90;;;-144.05;52.14;57054.88;5059136;28;20052;-80
2023/03/16 00:53:46;;;;;;;7.03;3.17;;;2.80;99.90;;;-144.05;52.26;57010.25;5059847;28;20025;-78
2023/03/16 00:56:12;;;;;;;7.20;3.30;;;2.80;99.90;;;-144.05;52.70;57029.38;5059131;28;20036;-80
2023/03/16 00:58:42;;;;;;;4.65;2.78;;;2.80;99.90;;;-144.05;52.28;57029.38;5060319;28;20021;-79
2023/03/16 01:01:18;;;;;;;6.95;3.95;;;2.80;99.90;;;-144.05;52.33;57020.88;5059699;28;20025;-80
2023/03/16 01:03:45;;;;;;;5.22;2.80;;;2.70;99.90;;;-144.05;52.22;57056.97;5060034;28;20051;-79
2023/03/16 01:06:18;;;;;;;7.50;2.83;;;2.70;99.90;;;-144.05;52.63;57031.50;5060540;28;20090;-78
2023/03/16 01:08:45;;;;;;;8.90;3.00;;;2.70;99.90;;;-144.05;52.43;57027.25;5060720;28;20028;-80
2023/03/16 01:11:17;;;;;;;10.13;3.00;;;2.60;99.90;;;-144.05;52.31;57029.38;5059429;28;20056;-78
2023/03/16 01:13:45;;;;;;;5.78;2.95;;;2.60;99.90;;;-144.05;52.73;57025.13;5059938;28;20084;-78
2023/03/16 01:16:12;;;;;;;7.15;3.15;;;2.60;99.90;;;-144.05;52.62;57012.38;5059665;28;20025;-79
2023/03/16 01:18:38;;;;;;;8.60;3.15;;;2.50;99.90;;;-144.05;52.30;57023.00;5059500;28;20059;-80
2023/03/16 01:21:07;;;;;;;5.65;3.20;;;2.40;99.90;;;-144.05;53.12;57031.50;5058886;28;20032;-80
2023/03/16 01:23:36;;;;;;;6.40;3.15;;;2.40;99.90;;;-144.05;52.81;57027.25;5057931;28;20043;-77
2023/03/16 01:26:02;;;;;;;8.40;3.47;;;2.40;99.90;;;-144.05;52.99;57012.38;5058195;28;20025;-80
2023/03/16 01:28:33;;;;;;;9.38;2.75;;;2.40;99.90;;;-144.05;52.49;57014.50;5059161;28;20506;-79
2023/03/16 01:31:05;;;;;;;4.88;2.83;;;2.50;99.90;;;-144.05;52.48;57003.88;5059901;28;20048;-79
2023/03/16 01:33:32;;;;;;;7.80;3.03;;;2.60;99.90;;;-144.05;52.38;57023.00;5057327;28;20211;-81
2023/03/16 01:36:06;;;;;;;7.22;2.75;;;2.50;99.90;;;-144.05;51.88;57001.75;5057930;28;20392;-79
2023/03/16 01:38:32;;;;;;;8.05;3.53;;;2.60;99.90;;;-144.05;51.74;56999.63;5058991;28;20021;-78
2023/03/16 01:41:00;;;;;;;8.90;3.50;;;2.70;99.90;;;-144.05;52.49;57010.25;5058365;28;20025;-80
2023/03/16 01:43:32;;;;;;;14.63;3.60;;;2.70;99.90;;;-144.05;52.32;56999.63;5059188;28;20056;-80
2023/03/16 01:46:06;;;;;;;9.23;3.35;;;2.80;99.90;;;-144.05;52.17;57008.13;5059229;28;20090;-80
2023/03/16 01:49:15;;;;;;;5.28;2.53;;;2.90;99.90;;;-144.05;51.96;56993.25;5058414;28;20072;-79
2023/03/16 01:51:59;;;;;;;7.38;2.88;;;2.90;99.90;;;-144.05;51.63;56997.50;5056860;28;20575;-79
2023/03/16 01:54:41;;;;;;;8.77;3.28;;;3.00;99.90;;;-144.05;52.10;57018.75;5059196;28;20033;-79
2023/03/16 01:57:24;;;;;;;7.90;3.10;;;3.00;99.90;;;-144.05;51.46;56976.28;5058928;28;20039;-78
2023/03/16 02:00:17;;;;;;;20.70;5.85;;;3.10;99.90;;;-144.05;51.32;57012.38;5057011;28;20032;-79
2023/03/16 02:02:51;;;;;;;5.40;2.90;;;3.10;99.90;;;-144.05;51.37;57001.75;5057602;28;20021;-80
2023/03/16 02:05:46;;;;;;;9.05;2.72;;;3.20;99.90;;;-144.05;50.85;57025.13;5058121;28;20037;-79
2023/03/16 02:08:12;;;;;;;7.13;2.88;;;3.20;99.90;;;-144.05;50.59;57006.00;5058664;28;20086;-80
2023/03/16 02:10:40;;;;;;;7.68;2.85;;;3.30;99.90;;;-144.05;50.67;57020.88;5058854;28;20116;-80
2023/03/16 02:13:06;;;;;;;7.55;3.55;;;3.30;99.90;;;-144.05;50.80;57023.00;5057491;28;20453;-80
2023/03/16 02:15:34;;;;;;;7.95;2.88;;;3.20;99.90;;;-144.05;51.17;57029.38;5056657;28;20053;-80
2023/03/16 02:18:01;;;;;;;7.07;2.53;;;3.30;99.90;;;-144.05;50.50;57031.50;5059294;28;20025;-79
2023/03/16 02:21:18;;;;;;;6.97;3.15;;;3.30;99.90;;;-144.05;49.94;56995.38;5058318;28;20067;-80
2023/03/16 02:23:47;;;;;;;7.83;2.87;;;3.30;99.90;;;-144.05;49.80;56999.63;5056307;28;20036;-79
2023/03/16 02:26:43;;;;;;;5.40;3.17;;;3.30;99.90;;;-144.05;50.08;57014.50;5058600;28;20032;-79
2023/03/16 02:29:55;;;;;;;5.25;2.70;;;3.40;99.90;;;-144.05;49.86;57001.75;5058364;28;20053;-78
2023/03/16 02:32:25;;;;;;;5.18;2.50;;;3.40;99.90;;;-144.05;49.83;57006.00;5057815;28;20087;-80
2023/03/16 02:34:51;;;;;;;5.53;2.60;;;3.30;99.90;;;-144.05;49.31;57031.50;5056558;28;20076;-78
2023/03/16 02:37:17;;;;;;;8.43;2.65;;;3.30;99.90;;;-144.05;49.10;56986.91;5058210;28;20060;-79
2023/03/16 02:39:43;;;;;;;4.97;2.38;;;3.30;99.90;;;-144.05;49.01;57029.38;5056069;28;20024;-78
2023/03/16 02:42:18;;;;;;;11.60;3.15;;;3.30;99.90;;;-144.05;49.00;57020.88;5057881;28;20060;-81
2023/03/16 02:44:56;;;;;;;5.85;2.72;;;3.30;99.90;;;-144.05;48.69;57003.88;5057960;28;20079;-79
2023/03/16 02:47:43;;;;;;;6.43;2.67;;;3.40;99.90;;;-144.05;48.26;57027.25;5057660;28;20037;-80
2023/03/16 02:50:11;;;;;;;5.25;2.20;;;3.40;99.90;;;-144.05;48.54;57006.00;5058270;28;20242;-79
2023/03/16 02:52:38;;;;;;;5.88;2.05;;;3.30;99.90;;;-144.05;48.04;57001.75;5058658;28;20033;-79
2023/03/16 02:55:06;;;;;;;5.50;2.25;;;3.30;99.90;;;-144.05;47.84;57008.13;5057787;28;20104;-79
2023/03/16 02:57:33;;;;;;;8.80;2.00;;;3.40;99.90;;;-144.05;48.12;57029.38;5058775;28;20476;-80
2023/03/16 02:59:58;;;;;;;5.10;2.50;;;3.30;99.90;;;-144.05;47.80;56974.16;5058525;28;20025;-79
2023/03/16 03:02:24;;;;;;;5.65;2.17;;;3.30;99.90;;;-144.05;48.03;56991.13;5058844;28;20071;-79
2023/03/16 03:04:53;;;;;;;4.55;2.72;;;3.30;99.90;;;-144.05;47.88;57023.00;5058520;28;20057;-79
2023/03/16 03:07:20;;;;;;;6.57;2.10;;;3.30;99.90;;;-144.05;48.30;57001.75;5058547;28;20028;-79
2023/03/16 03:09:46;;;;;;;5.97;2.20;;;3.30;99.90;;;-144.05;47.88;57027.25;5057393;28;20048;-78
2023/03/16 03:12:12;;;;;;;4.28;2.20;;;3.30;99.90;;;-144.05;47.98;57006.00;5056428;28;20028;-80
2023/03/16 03:14:39;;;;;;;6.45;2.53;;;3.20;99.90;;;-144.05;48.18;57010.25;5058152;28;20366;-77
2023/03/16 03:17:07;;;;;;;4.75;2.25;;;3.20;99.90;;;-144.05;47.71;57016.63;5058780;28;20021;-79
2023/03/16 03:19:35;;;;;;;6.68;2.40;;;3.20;99.90;;;-144.05;48.06;57040.00;5057528;28;20025;-79
2023/03/16 03:22:05;;;;;;;6.07;1.98;;;3.30;99.90;;;-144.05;48.00;57008.13;5057851;28;20106;-77
2023/03/16 03:24:33;;;;;;;6.93;2.50;;;3.40;99.90;;;-144.05;47.81;57006.00;5057413;28;20447;-77
2023/03/16 03:27:05;;;;;;;6.47;2.72;;;3.40;99.90;;;-144.05;47.82;57014.50;5057562;28;20059;-80
2023/03/16 03:29:34;;;;;;;5.70;2.47;;;3.50;99.90;;;-144.05;47.82;57014.50;5057165;28;20021;-78
2023/03/16 03:32:05;;;;;;;3.92;2.22;;;3.50;99.90;;;-144.05;47.71;56995.38;5057111;28;20029;-79
2023/03/16 03:34:31;;;;;;;4.55;2.33;;;3.60;99.90;;;-144.05;47.53;57025.13;5056578;28;20017;-80
2023/03/16 03:36:58;;;;;;;4.38;2.00;;;3.60;99.90;;;-144.05;47.64;56995.38;5057302;28;20017;-79
2023/03/16 03:39:24;;;;;;;6.95;2.47;;;3.60;99.90;;;-144.05;47.38;57006.00;5056998;28;20439;-79
2023/03/16 03:41:53;;;;;;;5.60;1.98;;;3.70;99.90;;;-144.05;47.31;56999.63;5055617;28;20100;-80
2023/03/16 03:44:23;;;;;;;3.70;1.65;;;3.70;99.90;;;-144.05;47.09;57001.75;5057377;28;20139;-80
2023/03/16 03:46:51;;;;;;;8.25;2.15;;;3.70;99.90;;;-144.05;47.27;56972.03;5057169;28;20609;-78
2023/03/16 03:49:17;;;;;;;3.80;2.22;;;3.80;99.90;;;-144.05;46.87;57001.75;5057051;28;20051;-79
2023/03/16 03:51:43;;;;;;;7.75;2.90;;;3.80;99.90;;;-144.05;47.54;56999.63;5056344;28;20025;-78
2023/03/16 03:54:09;;;;;;;3.33;1.95;;;3.80;99.90;;;-144.05;47.32;57014.50;5055927;28;20029;-78
2023/03/16 03:56:35;;;;;;;4.95;2.03;;;3.80;99.90;;;-144.05;46.93;56993.25;5056543;28;20369;-79
2023/03/16 03:59:01;;;;;;;2.65;1.35;;;3.90;99.90;;;-144.05;47.12;56989.00;5056167;28;20033;-79
2023/03/16 04:01:27;;;;;;;6.07;2.00;;;3.80;99.90;;;-144.05;47.39;57031.50;5055919;28;20113;-80
2023/03/16 04:03:53;;;;;;;4.38;2.00;;;3.80;99.90;;;-144.05;46.78;57006.00;5056207;28;20036;-78
2023/03/16 04:06:19;;;;;;;6.90;1.90;;;3.80;99.90;;;-144.05;46.98;57010.25;5056224;28;20036;-79
2023/03/16 04:08:44;;;;;;;5.00;1.95;;;3.80;99.90;;;-144.05;47.70;57008.13;5056240;28;20051;-79
2023/03/16 04:11:10;;;;;;;2.42;1.80;;;3.80;99.90;;;-144.05;47.15;57012.38;5055778;28;20036;-79
2023/03/16 04:13:36;;;;;;;6.90;2.13;;;3.80;99.90;;;-144.05;47.11;57010.25;5055626;28;20037;-78
2023/03/16 04:16:03;;;;;;;5.40;1.85;;;3.80;99.90;;;-144.05;47.36;56989.00;5056036;28;20388;-79
2023/03/16 04:18:49;;;;;;;4.18;2.13;;;3.80;99.90;;;-144.05;47.05;57006.00;5055505;28;20028;-78
2023/03/16 04:21:17;;;;;;;4.15;1.90;;;3.90;99.90;;;-144.05;47.64;57006.00;5054388;28;20021;-79
2023/03/16 04:23:43;;;;;;;4.10;1.85;;;3.80;99.90;;;-144.05;47.50;57006.00;5056799;28;20029;-79
2023/03/16 04:26:10;;;;;;;4.22;1.65;;;3.90;99.90;;;-144.05;46.91;56995.38;5058978;28;20096;-80
2023/03/16 04:28:36;;;;;;;5.22;1.92;;;3.90;99.90;;;-144.05;47.21;57012.38;5059644;28;20025;-79
2023/03/16 04:31:09;;;;;;;5.57;1.98;;;3.90;99.90;;;-144.05;46.84;56993.25;5060325;28;20040;-79
2023/03/16 04:33:38;;;;;;;3.45;1.70;;;3.90;99.90;;;-144.05;47.00;57008.13;5057889;28;20115;-79
2023/03/16 04:36:05;;;;;;;4.97;1.90;;;3.90;99.90;;;-144.05;46.55;56976.28;5060791;28;20036;-79
2023/03/16 04:38:33;;;;;;;3.47;1.90;;;3.90;99.90;;;-144.05;46.55;57020.88;5060113;28;20376;-80
2023/03/16 04:41:05;;;;;;;6.43;1.67;;;3.90;99.90;;;-144.05;46.66;56993.25;5060399;28;20024;-77
2023/03/16 04:43:33;;;;;;;6.15;2.00;;;3.90;99.90;;;-144.05;46.89;57006.00;5061699;28;20025;-77
2023/03/16 04:46:01;;;;;;;4.43;1.85;;;3.80;99.90;;;-144.05;47.03;56986.91;5061528;28;20021;-79
2023/03/16 04:48:31;;;;;;;5.70;2.00;;;3.80;99.90;;;-144.05;46.76;57001.75;5058796;28;20035;-78
2023/03/16 04:50:58;;;;;;;6.85;1.88;;;3.80;99.90;;;-144.05;47.07;57020.88;5058985;28;20095;-78
2023/03/16 04:53:24;;;;;;;10.77;1.90;;;3.90;99.90;;;-144.05;47.41;56999.63;5058032;28;20033;-78
2023/03/16 04:55:50;;;;;;;3.40;1.60;;;3.90;99.90;;;-144.05;46.81;56982.66;5066921;22;20046;-76
2023/03/16 04:58:16;;;;;;;5.85;1.75;;;3.90;99.90;;;-144.05;47.14;57023.00;5032711;28;20104;-77
2023/03/16 05:00:42;;;;;;;4.45;1.70;;;3.80;99.90;;;-144.05;47.39;57027.25;5033999;28;20140;-77
2023/03/16 05:03:09;;;;;;;4.00;1.90;;;3.90;99.90;;;-144.05;47.14;57014.50;5034001;28;20108;-75
2023/03/16 05:05:38;;;;;;;5.50;1.58;;;3.90;99.90;;;-144.05;46.88;57014.50;5042093;28;20396;-77
2023/03/16 05:08:05;;;;;;;3.13;1.58;;;3.90;99.90;;;-144.05;47.72;57001.75;5053904;28;20102;-77
2023/03/16 05:10:33;;;;;;;6.13;2.03;;;4.00;99.90;;;-144.05;47.45;56999.63;5052461;28;20028;-77
2023/03/16 05:13:00;;;;;;;4.63;2.63;;;3.90;99.90;;;-144.05;47.59;57014.50;5053896;28;20404;-77
2023/03/16 05:15:26;;;;;;;5.47;2.00;;;3.90;99.90;;;-144.05;47.40;56995.38;5053667;28;20061;-77
2023/03/16 05:17:54;;;;;;;3.97;2.00;;;3.80;99.90;;;-144.05;47.75;56980.53;5052529;28;20111;-77
2023/03/16 05:20:22;;;;;;;7.05;2.85;;;3.90;99.90;;;-144.05;48.53;57018.75;5053495;28;20052;-77
2023/03/16 05:22:49;;;;;;;6.88;2.05;;;3.90;99.90;;;-144.05;47.79;57006.00;5052455;28;20033;-77
2023/03/16 05:25:17;;;;;;;5.90;2.15;;;3.90;99.90;;;-144.05;48.39;57020.88;5053699;28;20028;-77
2023/03/16 05:27:50;;;;;;;4.38;2.17;;;3.80;99.90;;;-144.05;48.23;56982.66;5052384;28;20480;-77
2023/03/16 05:30:18;;;;;;;5.32;2.38;;;3.80;99.90;;;-144.05;49.06;56999.63;5053552;28;20407;-77
2023/03/16 05:32:45;;;;;;;4.97;2.88;;;3.90;99.90;;;-144.05;49.30;56993.25;5053900;28;20036;-76
2023/03/16 05:35:12;;;;;;;4.70;2.72;;;3.90;99.90;;;-144.05;49.24;56993.25;5053384;28;20024;-75
2023/03/16 05:37:41;;;;;;;6.90;2.97;;;4.00;99.90;;;-144.05;48.99;57014.50;5053393;28;20025;-75
2023/03/16 05:40:21;;;;;;;7.05;3.00;;;3.90;99.90;;;-144.05;49.19;57003.88;5053251;28;20135;-77
2023/03/16 05:42:54;;;;;;;7.53;3.22;;;4.00;99.90;;;-144.05;48.97;57008.13;5053433;28;20108;-74
2023/03/16 05:45:20;;;;;;;7.85;3.70;;;4.00;99.90;;;-144.05;49.00;56991.13;5053456;28;20039;-76
2023/03/16 05:47:46;;;;;;;6.75;2.72;;;4.10;99.90;;;-144.05;49.18;56980.53;5053127;28;20032;-76
2023/03/16 05:50:15;;;;;;;7.85;3.50;;;4.10;99.90;;;-144.05;49.27;57014.50;5053097;28;20086;-74
2023/03/16 05:52:43;;;;;;;9.25;3.65;;;4.10;99.90;;;-144.05;49.13;56993.25;5053521;28;20124;-77
2023/03/16 05:55:13;;;;;;;7.75;3.30;;;4.10;99.90;;;-144.05;49.06;56997.50;5054135;28;20040;-75
2023/03/16 05:57:40;;;;;;;6.75;3.65;;;4.20;99.90;;;-144.05;49.27;56993.25;5053643;28;20028;-75
2023/03/16 06:00:13;;;;;;;7.80;3.58;;;4.20;99.90;;;-144.05;48.47;56967.78;5066875;28;20036;-77
2023/03/16 06:02:47;;;;;;;9.07;3.40;;;4.10;99.90;;;-144.05;48.57;57014.50;5068278;28;20028;-77
2023/03/16 06:05:15;;;;;;;6.40;3.78;;;4.20;99.90;;;-144.05;48.51;56974.16;5052411;28;20036;-77
2023/03/16 06:07:42;;;;;;;9.45;3.22;;;4.20;99.90;;;-144.05;48.83;56997.50;5052354;28;20399;-75
2023/03/16 06:10:10;;;;;;;6.35;3.42;;;4.20;99.90;;;-144.05;48.85;56963.53;5053629;28;20028;-75
2023/03/16 06:12:36;;;;;;;8.02;3.90;;;4.20;99.90;;;-144.05;48.78;56993.25;5053206;28;20120;-75
2023/03/16 06:15:07;;;;;;;5.10;2.97;;;4.20;99.90;;;-144.05;48.30;56989.00;5053659;28;20024;-75
2023/03/16 06:17:36;;;;;;;8.75;3.55;;;4.30;99.90;;;-144.05;48.20;56980.53;5052233;28;20352;-74
2023/03/16 06:20:09;;;;;;;8.30;3.30;;;4.30;99.90;;;-144.05;48.52;56995.38;5053218;28;20025;-75
2023/03/16 06:22:39;;;;;;;4.30;3.00;;;4.30;99.90;;;-144.05;47.66;56991.13;5053802;28;20499;-75
2023/03/16 06:25:09;;;;;;;8.60;3.17;;;4.40;99.90;;;-144.05;48.06;56976.28;5053494;28;20408;-76
2023/03/16 06:27:36;;;;;;;6.10;3.17;;;4.50;99.90;;;-144.05;47.71;57003.88;5055425;28;20029;-77
2023/03/16 06:30:05;;;;;;;5.72;2.92;;;4.50;99.90;;;-144.05;47.99;56991.13;5056309;28;20495;-78
2023/03/16 06:32:31;;;;;;;6.22;3.42;;;4.50;99.90;;;-144.05;48.21;56997.50;5053243;28;20065;-77
2023/03/16 06:35:00;;;;;;;7.03;2.83;;;4.50;99.90;;;-144.05;47.89;57001.75;5053064;28;20056;-77
2023/03/16 06:37:27;;;;;;;7.00;3.55;;;4.60;99.90;;;-144.05;47.86;56982.66;5053502;28;20043;-78
2023/03/16 06:39:53;;;;;;;8.15;4.03;;;4.60;99.90;;;-144.05;48.39;56995.38;5053367;28;20025;-77
2023/03/16 06:42:19;;;;;;;5.10;2.90;;;4.60;99.90;;;-144.05;47.70;56980.53;5053643;28;20481;-77
2023/03/16 06:44:45;;;;;;;3.90;2.78;;;4.70;99.90;;;-144.05;47.22;56993.25;5052562;28;20029;-76
2023/03/16 06:47:11;;;;;;;7.15;3.05;;;4.80;99.90;;;-144.05;47.29;56980.53;5053404;28;20377;-76
2023/03/16 06:49:37;;;;;;;6.95;3.65;;;4.90;99.90;;;-144.05;46.94;57016.63;5051147;28;20032;-76
2023/03/16 06:52:03;;;;;;;8.40;2.97;;;5.00;99.90;;;-144.05;47.51;56986.91;5053480;28;20059;-75
2023/03/16 06:54:31;;;;;;;5.85;2.97;;;5.10;99.90;;;-144.05;46.79;56993.25;5053832;28;20084;-77
2023/03/16 06:56:57;;;;;;;8.00;3.95;;;5.20;99.90;;;-144.05;46.20;56965.66;5053673;28;20110;-75
2023/03/16 06:59:23;;;;;;;6.55;2.97;;;5.20;99.90;;;-144.05;46.14;56989.00;5051567;28;20044;-76
2023/03/16 07:01:49;;;;;;;6.10;2.90;;;5.20;99.90;;;-144.05;46.38;56984.78;5051826;28;20052;-75
2023/03/16 07:04:15;;;;;;;7.45;3.00;;;5.30;99.90;;;-144.05;46.74;56989.00;5053107;28;20089;-78
2023/03/16 07:06:41;;;;;;;3.95;2.70;;;5.30;99.90;;;-144.05;46.10;56978.41;5053034;28;20029;-76
2023/03/16 07:09:08;;;;;;;5.57;2.83;;;5.40;99.90;;;-144.05;45.96;56978.41;5052380;28;20068;-75
2023/03/16 07:11:34;;;;;;;5.03;3.08;;;5.50;99.90;;;-144.05;45.66;56982.66;5052408;28;20051;-77
2023/03/16 07:14:00;;;;;;;5.70;2.83;;;5.60;99.90;;;-144.05;45.64;56967.78;5051248;28;20136;-75
2023/03/16 07:16:27;;;;;;;6.00;3.33;;;5.70;99.90;;;-144.05;45.03;56963.53;5052757;28;20461;-74
2023/03/16 07:18:53;;;;;;;6.88;2.90;;;5.70;99.90;;;-144.05;45.46;56976.28;5050956;28;20029;-75
2023/03/16 07:21:20;;;;;;;5.45;2.75;;;5.70;99.90;;;-144.05;44.83;56944.41;5051165;28;20667;-76
2023/03/16 07:23:47;;;;;;;4.63;2.90;;;5.80;99.90;;;-144.05;44.93;56980.53;5052729;28;20025;-76
2023/03/16 07:26:12;;;;;;;5.65;3.17;;;5.80;99.90;;;-144.05;44.85;56986.91;5052503;28;20511;-77
2023/03/16 07:28:39;;;;;;;6.65;3.00;;;5.80;99.90;;;-144.05;45.04;56972.03;5051941;28;20103;-75
2023/03/16 07:31:06;;;;;;;4.97;2.75;;;5.90;99.90;;;-144.05;44.67;56980.53;5051998;28;20028;-75
2023/03/16 07:33:33;;;;;;;6.95;2.75;;;5.90;99.90;;;-144.05;44.70;56940.16;5052626;28;20024;-75
2023/03/16 07:36:03;;;;;;;4.07;2.42;;;5.90;99.90;;;-144.05;45.01;56997.50;5051092;28;20343;-74
2023/03/16 07:38:31;;;;;;;5.55;3.15;;;5.90;99.90;;;-144.05;44.57;56974.16;5052062;28;20033;-75
2023/03/16 07:41:00;;;;;;;5.53;2.55;;;5.90;99.90;;;-144.05;44.80;56967.78;5053941;28;20044;-75
2023/03/16 07:43:28;;;;;;;5.15;2.58;;;5.90;99.90;;;-144.05;45.08;56963.53;5051277;28;20399;-76
2023/03/16 07:45:54;;;;;;;6.75;3.10;;;5.90;99.90;;;-144.05;44.53;56961.41;5052721;28;20025;-76
2023/03/16 07:48:20;;;;;;;7.40;3.08;;;6.10;99.90;;;-144.05;43.82;56969.91;5052426;28;20033;-76
2023/03/16 07:50:47;;;;;;;5.10;2.63;;;6.40;99.90;;;-144.05;43.42;56961.41;5052210;28;20094;-76
2023/03/16 07:53:17;;;;;;;9.07;3.10;;;6.70;99.90;;;-144.05;42.34;56950.78;5052506;28;20075;-76
2023/03/16 07:55:43;;;;;;;4.75;2.90;;;7.10;99.90;;;-144.05;42.07;56965.66;5052154;28;20029;-75
2023/03/16 07:58:11;;;;;;;4.88;2.85;;;7.20;99.90;;;-144.05;42.19;56929.53;5051865;28;20036;-76
2023/03/16 08:00:38;;;;;;;3.88;2.50;;;7.20;99.90;;;-144.05;42.77;56965.66;5053929;28;20021;-76
2023/03/16 08:03:04;;;;;;;4.00;2.35;;;7.20;99.90;;;-144.05;42.31;56946.53;5055669;28;20025;-78
2023/03/16 08:05:33;;;;;;;5.53;2.60;;;7.10;99.90;;;-144.05;42.67;56955.03;5056020;28;20036;-76
2023/03/16 08:08:02;;;;;;;5.85;2.90;;;7.00;99.90;;;-144.05;42.26;56942.28;5056247;28;20036;-78
2023/03/16 08:10:29;;;;;;;4.18;2.58;;;7.00;99.90;;;-144.05;41.56;56948.66;5056287;28;20052;-76
2023/03/16 08:12:55;;;;;;;3.92;2.60;;;7.10;99.90;;;-144.05;41.66;56938.03;5055921;28;20048;-77
2023/03/16 08:15:21;;;;;;;4.60;2.05;;;7.20;99.90;;;-144.05;41.24;56921.06;5054908;28;20484;-77
2023/03/16 08:17:47;;;;;;;5.78;2.35;;;7.30;99.90;;;-144.05;41.74;56935.91;5056255;28;20029;-76
2023/03/16 08:20:14;;;;;;;11.20;2.55;;;7.40;99.90;;;-144.05;41.13;56959.28;5055843;28;20061;-76
2023/03/16 08:22:44;;;;;;;4.60;2.20;;;7.30;99.90;;;-144.05;40.53;56955.03;5054411;28;20044;-76
2023/03/16 08:25:12;;;;;;;4.43;2.33;;;7.40;99.90;;;-144.05;40.57;56957.16;5069601;28;20029;-77
2023/03/16 08:27:38;;;;;;;4.88;2.47;;;7.50;99.90;;;-144.05;40.57;56961.41;5064320;28;20512;-76
2023/03/16 08:30:10;;;;;;;4.55;2.47;;;7.60;99.90;;;-144.05;40.03;56955.03;5053980;28;20045;-78
2023/03/16 08:32:38;;;;;;;5.15;2.60;;;7.60;99.90;;;-144.05;39.91;56972.03;5054182;28;20040;-78
2023/03/16 08:35:13;;;;;;;7.82;2.95;;;7.60;99.90;;;-144.05;40.34;56963.53;5055636;28;20029;-76
2023/03/16 08:37:41;;;;;;;5.18;2.10;;;7.60;99.90;;;-144.05;39.67;56967.78;5056096;28;20086;-77
2023/03/16 08:40:12;;;;;;;6.53;2.40;;;7.70;99.90;;;-144.05;40.64;56969.91;5054906;28;20040;-75
2023/03/16 08:42:40;;;;;;;7.15;3.22;;;7.60;99.90;;;-144.05;40.50;56976.28;5055424;28;20040;-78
2023/03/16 08:45:08;;;;;;;4.25;2.40;;;7.50;99.90;;;-144.05;40.74;56940.16;5054621;28;20025;-79
2023/03/16 08:47:41;;;;;;;4.18;2.63;;;7.50;99.90;;;-144.05;40.28;56957.16;5055590;28;20033;-75
2023/03/16 08:50:11;;;;;;;6.93;2.28;;;7.50;99.90;;;-144.05;41.22;56967.78;5055229;28;20057;-76
2023/03/16 08:52:39;;;;;;;3.90;2.50;;;7.40;99.90;;;-144.05;40.57;56974.16;5055821;28;20368;-77
2023/03/16 08:55:09;;;;;;;4.68;2.60;;;7.60;99.90;;;-144.05;39.77;56952.91;5054999;28;20450;-76
2023/03/16 08:57:38;;;;;;;5.72;2.80;;;7.70;99.90;;;-144.05;40.00;56952.91;5055432;28;20029;-77
2023/03/16 09:00:11;;;;;;;3.20;2.00;;;7.80;99.90;;;-144.05;39.72;56955.03;5054726;28;20027;-76
2023/03/16 09:02:41;;;;;;;4.97;2.35;;;7.90;99.90;;;-144.05;39.79;56944.41;5055000;28;20029;-75
2023/03/16 09:05:13;;;;;;;4.38;2.30;;;7.90;99.90;;;-144.05;39.46;56959.28;5054705;28;20033;-76
2023/03/16 09:07:40;;;;;;;4.95;2.65;;;8.10;99.90;;;-144.05;39.91;56967.78;5054773;28;20036;-76
2023/03/16 09:10:12;;;;;;;5.00;2.35;;;7.90;99.90;;;-144.05;40.00;56942.28;5054824;28;20087;-74
2023/03/16 09:12:39;;;;;;;4.70;2.30;;;7.80;99.90;;;-144.05;40.51;56963.53;5052866;28;20067;-76
2023/03/16 09:15:08;;;;;;;3.85;2.13;;;7.70;99.90;;;-144.05;40.38;56946.53;5054454;28;20078;-76
2023/03/16 09:17:35;;;;;;;9.38;2.72;;;7.60;99.90;;;-144.05;40.20;56959.28;5054380;28;20100;-76
2023/03/16 09:20:08;;;;;;;4.95;2.22;;;7.60;99.90;;;-144.05;40.67;56950.78;5054287;28;20111;-78
2023/03/16 09:22:35;;;;;;;5.10;2.22;;;7.50;99.90;;;-144.05;40.40;56955.03;5054258;28;20583;-76
2023/03/16 09:25:01;;;;;;;4.32;2.30;;;7.50;99.90;;;-144.05;41.25;56942.28;5052834;28;20044;-76
2023/03/16 09:27:27;;;;;;;4.35;2.10;;;7.30;99.90;;;-144.05;40.77;56950.78;5054429;28;20174;-77
2023/03/16 09:29:55;;;;;;;4.78;2.40;;;7.30;99.90;;;-144.05;40.48;56976.28;5054115;28;20067;-77
2023/03/16 09:32:21;;;;;;;8.98;2.90;;;7.30;99.90;;;-144.05;41.09;56950.78;5054271;28;20051;-76
2023/03/16 09:34:48;;;;;;;6.00;2.25;;;7.40;99.90;;;-144.05;40.67;56948.66;5054416;28;20053;-78
2023/03/16 09:37:15;;;;;;;6.15;2.15;;;7.50;99.90;;;-144.05;40.83;56955.03;5053179;28;20029;-75
2023/03/16 09:39:41;;;;;;;4.13;2.42;;;7.50;99.90;;;-144.05;40.51;56942.28;5053996;28;20048;-76
2023/03/16 09:42:48;;;;;;;3.90;2.58;;;7.50;99.90;;;-144.05;40.35;56959.28;5054320;28;20556;-76
2023/03/16 09:45:35;;;;;;;7.53;2.15;;;7.50;99.90;;;-144.05;40.84;56976.28;5054358;28;20071;-75
2023/03/16 09:48:05;;;;;;;5.82;2.40;;;7.50;99.90;;;-144.05;40.29;56942.28;5052468;28;20033;-76
2023/03/16 09:50:40;;;;;;;3.92;2.30;;;7.50;99.90;;;-144.05;41.00;56974.16;5054154;28;20039;-78
2023/03/16 09:53:27;;;;;;;6.72;2.75;;;7.60;99.90;;;-144.05;40.39;56967.78;5052950;28;20033;-76
2023/03/16 09:56:07;;;;;;;6.03;2.55;;;7.60;99.90;;;-144.05;40.57;56946.53;5053983;28;20033;-78
2023/03/16 09:58:33;;;;;;;7.07;2.08;;;7.80;99.90;;;-144.05;39.40;56933.78;5053383;28;20103;-77
2023/03/16 10:01:51;;;;;;;3.20;2.00;;;8.10;99.90;;;-144.05;40.00;56948.66;5053699;28;20056;-78
2023/03/16 10:04:39;;;;;;;;;;;8.10;99.90;;;-144.05;39.74;56942.28;5056474;28;20029;-76
2023/03/16 10:07:45;;;;;;;3.88;1.88;;;8.30;99.90;;;-144.05;39.65;56940.16;5052745;28;19908;-78
2023/03/16 10:10:56;;;;;;;4.40;2.03;;;8.70;99.90;;;-144.05;39.00;56938.03;5051766;28;20029;-79
2023/03/16 10:13:41;;;;;;;4.55;1.80;;;8.80;99.90;;;-144.05;38.65;56946.53;5053321;28;20075;-78
2023/03/16 10:16:20;;;;;;;5.63;1.95;;;8.80;99.90;;;-144.05;38.67;56948.66;5053425;28;20025;-75
2023/03/16 10:18:57;;;;;;;3.65;1.95;;;8.90;99.90;;;-144.05;38.36;56938.03;5052949;28;20561;-77
2023/03/16 10:21:23;;;;;;;4.05;2.38;;;9.10;99.90;;;-144.05;37.59;56929.53;5053343;28;20024;-77
2023/03/16 10:23:57;;;;;;;4.57;1.90;;;9.30;99.90;;;-144.05;38.61;56938.03;5051157;28;20039;-76
2023/03/16 10:26:40;;;;;;;5.40;2.55;;;9.30;99.90;;;-144.05;37.80;56961.41;5053092;28;20033;-77